createdAt,value
2019-01-26T00:02:00.358Z,44.00
2019-01-26T00:04:29.369Z,43.55
2019-01-26T00:06:57.979Z,47.08
2019-01-26T00:09:29.198Z,42.73
2019-01-26T00:11:57.896Z,41.60
2019-01-26T00:14:27.369Z,45.75
2019-01-26T00:16:56.176Z,42.85
2019-01-26T00:19:24.373Z,47.80
2019-01-26T00:22:01.435Z,39.78
2019-01-26T00:24:31.585Z,42.17
2019-01-26T00:27:02.572Z,47.75
2019-01-26T00:29:34.304Z,37.65
2019-01-26T00:32:02.791Z,44.48
2019-01-26T00:34:32.179Z,44.00
2019-01-26T00:37:01.325Z,40.00
2019-01-26T00:39:30.169Z,43.20
2019-01-26T00:41:59.157Z,40.90
2019-01-26T00:44:28.046Z,43.83
2019-01-26T00:46:58.954Z,41.60
2019-01-26T00:49:29.063Z,37.63
2019-01-26T00:51:59.004Z,43.05
2019-01-26T00:54:27.171Z,46.33
2019-01-26T00:56:55.964Z,43.38
2019-01-26T00:59:25.050Z,37.58
2019-01-26T01:01:53.335Z,40.83
2019-01-26T01:04:21.609Z,44.27
2019-01-26T01:06:52.777Z,40.63
2019-01-26T01:09:20.933Z,34.90
2019-01-26T01:11:49.227Z,44.50
2019-01-26T01:14:17.273Z,37.73
2019-01-26T01:16:45.215Z,42.85
2019-01-26T01:19:13.302Z,40.90
2019-01-26T01:21:42.118Z,38.33
2019-01-26T01:24:10.704Z,36.85
2019-01-26T01:26:41.007Z,40.65
2019-01-26T01:29:08.975Z,41.33
2019-01-26T01:31:37.395Z,39.15
2019-01-26T01:34:05.575Z,37.58
2019-01-26T01:36:33.702Z,40.83
2019-01-26T01:39:02.984Z,35.75
2019-01-26T01:41:30.793Z,36.73
2019-01-26T01:44:02.451Z,35.43
2019-01-26T01:46:31.975Z,34.10
2019-01-26T01:49:00.631Z,33.38
2019-01-26T01:51:28.504Z,30.75
2019-01-26T01:53:56.859Z,34.65
2019-01-26T01:56:24.929Z,29.50
2019-01-26T01:58:53.036Z,26.87
2019-01-26T02:01:21.871Z,31.90
2019-01-26T02:03:49.551Z,25.32
2019-01-26T02:06:17.835Z,24.85
2019-01-26T02:08:45.947Z,24.07
2019-01-26T02:11:14.421Z,30.57
2019-01-26T02:13:42.466Z,28.12
2019-01-26T02:16:10.160Z,26.52
2019-01-26T02:18:37.991Z,22.87
2019-01-26T02:21:07.206Z,22.52
2019-01-26T02:23:35.698Z,21.45
2019-01-26T02:26:03.738Z,23.18
2019-01-26T02:28:32.333Z,23.90
2019-01-26T02:31:00.454Z,21.37
2019-01-26T02:33:28.935Z,21.23
2019-01-26T02:35:57.828Z,22.87
2019-01-26T02:38:28.103Z,23.87
2019-01-26T02:40:56.594Z,22.70
2019-01-26T02:43:24.267Z,21.75
2019-01-26T02:45:52.960Z,20.52
2019-01-26T02:48:20.989Z,16.65
2019-01-26T02:50:49.116Z,16.12
2019-01-26T02:53:17.291Z,19.70
2019-01-26T02:55:45.122Z,19.12
2019-01-26T02:58:13.903Z,19.07
2019-01-26T03:00:44.858Z,19.98
2019-01-26T03:03:14.597Z,15.93
2019-01-26T03:05:42.243Z,18.87
2019-01-26T03:08:11.148Z,18.23
2019-01-26T03:10:44.771Z,15.48
2019-01-26T03:13:13.310Z,16.73
2019-01-26T03:15:42.175Z,18.02
2019-01-26T03:18:10.213Z,14.95
2019-01-26T03:20:38.395Z,17.60
2019-01-26T03:23:08.277Z,17.62
2019-01-26T03:25:36.455Z,18.00
2019-01-26T03:28:04.954Z,17.23
2019-01-26T03:30:32.558Z,15.18
2019-01-26T03:33:01.196Z,18.65
2019-01-26T03:35:29.328Z,21.82
2019-01-26T03:37:57.134Z,15.35
2019-01-26T03:40:25.178Z,17.02
2019-01-26T03:42:54.099Z,17.73
2019-01-26T03:45:22.249Z,14.90
2019-01-26T03:47:50.048Z,15.08
2019-01-26T03:50:18.329Z,13.95
2019-01-26T03:52:48.126Z,20.55
2019-01-26T03:55:17.592Z,13.83
2019-01-26T03:57:46.421Z,11.80
2019-01-26T04:00:22.297Z,17.35
2019-01-26T04:02:50.812Z,13.75
2019-01-26T04:05:19.831Z,11.90
2019-01-26T04:07:47.991Z,13.43
2019-01-26T04:10:17.599Z,13.62
2019-01-26T04:12:46.384Z,15.15
2019-01-26T04:15:15.179Z,13.28
2019-01-26T04:17:43.449Z,18.45
2019-01-26T04:20:12.914Z,10.85
2019-01-26T04:22:42.791Z,13.13
2019-01-26T04:25:11.659Z,16.60
2019-01-26T04:27:41.678Z,17.95
2019-01-26T04:30:14.243Z,16.77
2019-01-26T04:32:43.476Z,14.47
2019-01-26T04:35:11.987Z,16.50
2019-01-26T04:37:39.818Z,12.43
2019-01-26T04:40:10.373Z,15.05
2019-01-26T04:42:38.856Z,15.80
2019-01-26T04:45:09.433Z,12.50
2019-01-26T04:47:36.818Z,13.18
2019-01-26T04:50:05.598Z,11.30
2019-01-26T04:52:33.570Z,11.55
2019-01-26T04:55:01.764Z,11.55
2019-01-26T04:57:32.738Z,12.85
2019-01-26T05:00:00.860Z,8.78
2019-01-26T05:02:29.795Z,8.63
2019-01-26T05:04:58.996Z,9.63
2019-01-26T05:07:29.761Z,11.85
2019-01-26T05:09:58.891Z,8.93
2019-01-26T05:12:26.972Z,10.18
2019-01-26T05:14:55.079Z,11.25
2019-01-26T05:17:23.295Z,12.18
2019-01-26T05:19:53.453Z,11.28
2019-01-26T05:22:22.648Z,9.48
2019-01-26T05:24:51.916Z,9.40
2019-01-26T05:27:20.766Z,22.30
2019-01-26T05:29:48.751Z,7.75
2019-01-26T05:32:19.210Z,9.45
2019-01-26T05:34:47.976Z,12.23
2019-01-26T05:37:16.092Z,11.12
2019-01-26T05:39:44.759Z,8.75
2019-01-26T05:42:12.983Z,8.58
2019-01-26T05:44:41.744Z,9.50
2019-01-26T05:47:09.808Z,8.45
2019-01-26T05:49:37.621Z,10.55
2019-01-26T05:52:05.384Z,10.60
2019-01-26T05:54:33.718Z,9.65
2019-01-26T05:57:01.820Z,8.10
2019-01-26T05:59:29.987Z,9.03
2019-01-26T06:01:58.191Z,10.55
2019-01-26T06:04:26.630Z,11.97
2019-01-26T06:06:54.032Z,7.47
2019-01-26T06:09:22.426Z,13.70
2019-01-26T06:11:50.891Z,12.15
2019-01-26T06:14:19.417Z,10.80
2019-01-26T06:16:47.616Z,11.08
2019-01-26T06:19:16.987Z,15.08
2019-01-26T06:21:46.046Z,14.43
2019-01-26T06:24:14.800Z,8.30
2019-01-26T06:26:43.320Z,9.65
2019-01-26T06:29:12.046Z,14.60
2019-01-26T06:31:39.732Z,14.25
2019-01-26T06:34:07.878Z,13.98
2019-01-26T06:36:36.370Z,15.03
2019-01-26T06:39:06.203Z,10.35
2019-01-26T06:41:33.937Z,11.03
2019-01-26T06:44:02.046Z,13.98
2019-01-26T06:46:29.829Z,12.85
2019-01-26T06:49:00.764Z,14.03
2019-01-26T06:51:28.517Z,15.32
2019-01-26T06:53:55.860Z,14.13
2019-01-26T06:56:23.455Z,12.20
2019-01-26T06:58:52.082Z,15.03
2019-01-26T07:01:20.685Z,19.15
2019-01-26T07:03:48.636Z,13.93
2019-01-26T07:06:20.405Z,18.48
2019-01-26T07:08:49.341Z,18.55
2019-01-26T07:11:17.135Z,16.62
2019-01-26T07:13:45.371Z,19.92
2019-01-26T07:16:15.765Z,16.12
2019-01-26T07:18:44.248Z,19.70
2019-01-26T07:21:12.834Z,17.62
2019-01-26T07:23:40.823Z,22.30
2019-01-26T07:26:08.884Z,17.80
2019-01-26T07:28:37.338Z,20.85
2019-01-26T07:31:06.684Z,16.25
2019-01-26T07:33:34.420Z,19.23
2019-01-26T07:36:02.493Z,19.37
2019-01-26T07:38:31.914Z,16.48
2019-01-26T07:41:00.118Z,17.45
2019-01-26T07:43:29.067Z,16.00
2019-01-26T07:45:57.334Z,17.67
2019-01-26T07:48:25.527Z,15.38
2019-01-26T07:50:53.723Z,17.00
2019-01-26T07:53:21.840Z,17.20
2019-01-26T07:55:50.360Z,16.20
2019-01-26T07:58:18.888Z,22.42
2019-01-26T08:00:47.416Z,15.10
2019-01-26T08:03:16.037Z,18.82
2019-01-26T08:05:44.100Z,15.38
2019-01-26T08:08:12.321Z,15.70
2019-01-26T08:10:40.840Z,14.65
2019-01-26T08:13:09.010Z,15.55
2019-01-26T08:15:37.498Z,17.17
2019-01-26T08:18:07.390Z,17.20
2019-01-26T08:20:36.132Z,20.02
2019-01-26T08:23:03.957Z,19.35
2019-01-26T08:25:33.346Z,19.60
2019-01-26T08:28:01.478Z,16.55
2019-01-26T08:30:29.962Z,19.70
2019-01-26T08:32:58.832Z,22.58
2019-01-26T08:35:26.955Z,20.68
2019-01-26T08:37:57.106Z,18.27
2019-01-26T08:40:24.534Z,19.05
2019-01-26T08:42:52.645Z,17.50
2019-01-26T08:45:24.124Z,16.80
2019-01-26T08:47:52.772Z,20.32
2019-01-26T08:50:24.008Z,20.23
2019-01-26T08:52:56.285Z,21.85
2019-01-26T08:55:24.997Z,15.78
2019-01-26T08:57:53.239Z,17.40
2019-01-26T09:00:23.209Z,16.75
2019-01-26T09:03:10.769Z,23.75
2019-01-26T09:05:52.403Z,19.55
2019-01-26T09:08:20.717Z,21.42
2019-01-26T09:10:51.598Z,20.68
2019-01-26T09:13:20.339Z,19.12
2019-01-26T09:15:48.695Z,25.45
2019-01-26T09:18:16.839Z,20.30
2019-01-26T09:20:45.348Z,21.05
2019-01-26T09:23:15.443Z,22.22
2019-01-26T09:25:44.040Z,19.70
2019-01-26T09:28:12.320Z,16.80
2019-01-26T09:30:40.139Z,20.75
2019-01-26T09:33:09.286Z,18.23
2019-01-26T09:35:39.308Z,21.15
2019-01-26T09:38:08.122Z,18.67
2019-01-26T09:40:36.274Z,20.50
2019-01-26T09:43:05.136Z,19.27
2019-01-26T09:45:33.220Z,18.42
2019-01-26T09:48:01.229Z,20.30
2019-01-26T09:50:29.192Z,16.70
2019-01-26T09:52:57.020Z,21.80
2019-01-26T09:55:25.020Z,26.85
2019-01-26T09:57:53.065Z,15.93
2019-01-26T10:00:23.729Z,15.58
2019-01-26T10:02:51.371Z,18.57
2019-01-26T10:05:19.752Z,14.20
2019-01-26T10:07:48.298Z,16.55
2019-01-26T10:10:16.199Z,15.30
2019-01-26T10:12:44.117Z,16.45
2019-01-26T10:15:12.584Z,14.00
2019-01-26T10:17:45.862Z,13.00
2019-01-26T10:20:19.507Z,12.57
2019-01-26T10:22:46.959Z,12.77
2019-01-26T10:25:15.787Z,11.75
2019-01-26T10:27:43.964Z,17.50
2019-01-26T10:30:19.686Z,11.45
2019-01-26T10:32:47.801Z,23.60
2019-01-26T10:35:16.775Z,13.97
2019-01-26T10:37:45.219Z,11.10
2019-01-26T10:40:33.008Z,13.53
2019-01-26T10:43:02.262Z,20.43
2019-01-26T10:45:31.208Z,11.08
2019-01-26T10:48:02.633Z,11.18
2019-01-26T10:50:30.645Z,10.43
2019-01-26T10:53:01.444Z,15.37
2019-01-26T10:55:34.117Z,8.40
2019-01-26T10:58:03.111Z,13.37
2019-01-26T11:00:34.064Z,12.90
2019-01-26T11:03:03.184Z,11.63
2019-01-26T11:05:31.563Z,8.73
2019-01-26T11:08:01.532Z,9.08
2019-01-26T11:10:29.638Z,12.73
2019-01-26T11:12:58.562Z,8.73
2019-01-26T11:15:26.462Z,9.17
2019-01-26T11:17:56.410Z,9.47
2019-01-26T11:20:24.741Z,11.23
2019-01-26T11:22:53.551Z,14.70
2019-01-26T11:25:21.882Z,13.50
2019-01-26T11:27:50.443Z,17.30
2019-01-26T11:30:18.918Z,11.53
2019-01-26T11:32:47.972Z,14.30
2019-01-26T11:35:15.898Z,11.20
2019-01-26T11:37:43.724Z,13.97
2019-01-26T11:40:22.472Z,12.70
2019-01-26T11:42:52.687Z,13.00
2019-01-26T11:45:39.064Z,11.87
2019-01-26T11:48:14.252Z,15.37
2019-01-26T11:50:45.516Z,10.10
2019-01-26T11:53:13.746Z,15.47
2019-01-26T11:56:00.970Z,15.53
2019-01-26T11:58:29.787Z,18.50
2019-01-26T12:01:22.629Z,16.43
2019-01-26T12:04:16.280Z,14.10
2019-01-26T12:06:49.715Z,17.50
2019-01-26T12:09:18.528Z,12.77
2019-01-26T12:11:49.007Z,12.63
2019-01-26T12:14:16.725Z,15.77
2019-01-26T12:16:45.010Z,14.23
2019-01-26T12:19:13.816Z,11.87
2019-01-26T12:21:42.069Z,13.10
2019-01-26T12:24:10.188Z,14.20
2019-01-26T12:26:40.709Z,16.03
2019-01-26T12:29:12.187Z,17.73
2019-01-26T12:31:43.036Z,12.00
2019-01-26T12:34:12.196Z,11.00
2019-01-26T12:36:41.220Z,11.13
2019-01-26T12:39:14.161Z,11.77
2019-01-26T12:41:42.661Z,10.33
2019-01-26T12:44:11.027Z,11.80
2019-01-26T12:46:40.302Z,10.67
2019-01-26T12:49:08.842Z,10.70
2019-01-26T12:51:37.769Z,12.60
2019-01-26T12:54:06.227Z,11.97
2019-01-26T12:56:34.088Z,14.10
2019-01-26T12:59:02.884Z,11.73
2019-01-26T13:01:31.026Z,13.10
2019-01-26T13:03:58.745Z,13.57
2019-01-26T13:06:26.461Z,13.73
2019-01-26T13:08:58.858Z,13.57
2019-01-26T13:11:28.515Z,13.70
2019-01-26T13:13:59.184Z,11.70
2019-01-26T13:16:26.952Z,12.60
2019-01-26T13:18:56.397Z,11.70
2019-01-26T13:21:24.528Z,14.30
2019-01-26T13:23:51.962Z,12.93
2019-01-26T13:26:19.890Z,12.07
2019-01-26T13:28:48.108Z,10.90
2019-01-26T13:31:17.473Z,12.07
2019-01-26T13:33:46.560Z,13.37
2019-01-26T13:36:14.863Z,13.33
2019-01-26T13:38:44.391Z,10.60
2019-01-26T13:41:12.598Z,12.00
2019-01-26T13:43:40.391Z,13.57
2019-01-26T13:46:08.880Z,12.80
2019-01-26T13:48:36.662Z,12.87
2019-01-26T13:51:12.817Z,12.47
2019-01-26T13:53:36.433Z,10.90
2019-01-26T13:56:05.002Z,17.67
2019-01-26T13:58:32.512Z,8.70
2019-01-26T14:01:00.989Z,10.23
2019-01-26T14:03:29.977Z,12.30
2019-01-26T14:05:58.568Z,14.07
2019-01-26T14:08:27.256Z,17.20
2019-01-26T14:10:55.832Z,13.10
2019-01-26T14:13:25.522Z,13.10
2019-01-26T14:15:53.586Z,13.03
2019-01-26T14:18:21.443Z,13.77
2019-01-26T14:20:51.423Z,15.20
2019-01-26T14:23:21.925Z,13.27
2019-01-26T14:25:50.047Z,15.93
2019-01-26T14:28:17.885Z,12.00
2019-01-26T14:30:53.614Z,10.30
2019-01-26T14:33:21.557Z,13.40
2019-01-26T14:35:50.463Z,17.70
2019-01-26T14:38:18.205Z,13.77
2019-01-26T14:40:47.441Z,13.70
2019-01-26T14:43:15.682Z,14.10
2019-01-26T14:45:44.516Z,13.30
2019-01-26T14:48:13.119Z,13.27
2019-01-26T14:50:40.940Z,14.00
2019-01-26T14:53:09.012Z,11.67
2019-01-26T14:55:37.404Z,11.73
2019-01-26T14:58:05.572Z,11.40
2019-01-26T15:00:33.435Z,10.37
2019-01-26T15:03:03.834Z,18.70
2019-01-26T15:05:31.515Z,11.27
2019-01-26T15:07:59.785Z,10.43
2019-01-26T15:10:27.732Z,6.97
2019-01-26T15:12:55.954Z,11.67
2019-01-26T15:15:24.584Z,9.60
2019-01-26T15:17:52.902Z,9.57
2019-01-26T15:20:26.200Z,11.60
2019-01-26T15:22:54.941Z,11.27
2019-01-26T15:25:23.971Z,9.33
2019-01-26T15:27:54.911Z,11.67
2019-01-26T15:30:27.609Z,7.50
2019-01-26T15:32:55.376Z,11.73
2019-01-26T15:35:23.429Z,10.40
2019-01-26T15:37:53.769Z,10.37
2019-01-26T15:40:22.252Z,15.30
2019-01-26T15:42:50.335Z,11.90
2019-01-26T15:45:23.251Z,13.87
2019-01-26T15:47:51.679Z,12.77
2019-01-26T15:50:19.741Z,8.70
2019-01-26T15:52:48.883Z,12.60
2019-01-26T15:55:18.499Z,9.90
2019-01-26T15:57:46.631Z,14.97
2019-01-26T16:00:26.317Z,14.10
2019-01-26T16:02:56.699Z,14.60
2019-01-26T16:05:26.236Z,17.47
2019-01-26T16:07:54.089Z,16.73
2019-01-26T16:10:22.335Z,12.23
2019-01-26T16:12:50.340Z,18.17
2019-01-26T16:15:23.440Z,14.53
2019-01-26T16:17:52.170Z,16.10
2019-01-26T16:20:20.972Z,16.67
2019-01-26T16:22:49.799Z,18.00
2019-01-26T16:25:19.877Z,17.93
2019-01-26T16:27:48.692Z,17.00
2019-01-26T16:30:24.862Z,19.77
2019-01-26T16:32:53.545Z,20.00
2019-01-26T16:35:21.279Z,19.97
2019-01-26T16:37:51.756Z,18.77
2019-01-26T16:40:25.713Z,17.53
2019-01-26T16:42:53.731Z,18.27
2019-01-26T16:45:23.786Z,17.60
2019-01-26T16:47:52.031Z,18.50
2019-01-26T16:50:27.460Z,20.20
2019-01-26T16:52:52.342Z,18.80
2019-01-26T16:55:20.227Z,17.10
2019-01-26T16:57:48.513Z,20.40
2019-01-26T17:00:19.643Z,18.53
2019-01-26T17:02:47.399Z,25.30
2019-01-26T17:05:15.255Z,17.10
2019-01-26T17:07:43.445Z,17.73
2019-01-26T17:10:13.966Z,17.03
2019-01-26T17:12:42.456Z,17.50
2019-01-26T17:15:12.333Z,16.13
2019-01-26T17:17:41.932Z,18.83
2019-01-26T17:20:14.051Z,17.50
2019-01-26T17:22:42.213Z,20.97
2019-01-26T17:25:13.080Z,17.47
2019-01-26T17:27:41.345Z,20.90
2019-01-26T17:30:17.914Z,20.90
2019-01-26T17:32:45.994Z,20.03
2019-01-26T17:35:14.374Z,20.70
2019-01-26T17:37:43.823Z,21.53
2019-01-26T17:40:17.284Z,22.80
2019-01-26T17:42:45.951Z,22.00
2019-01-26T17:45:14.768Z,15.90
2019-01-26T17:47:43.479Z,27.70
2019-01-26T17:50:14.867Z,19.50
2019-01-26T17:52:42.830Z,18.00
2019-01-26T17:55:11.261Z,19.77
2019-01-26T17:57:39.592Z,19.57
2019-01-26T18:00:11.425Z,26.30
2019-01-26T18:02:40.143Z,21.80
2019-01-26T18:05:10.024Z,19.50
2019-01-26T18:07:37.598Z,18.10
2019-01-26T18:10:06.037Z,20.20
2019-01-26T18:12:37.070Z,18.23
2019-01-26T18:15:06.563Z,20.60
2019-01-26T18:17:34.519Z,18.53
2019-01-26T18:20:04.712Z,17.60
2019-01-26T18:22:33.109Z,21.00
2019-01-26T18:25:02.938Z,17.80
2019-01-26T18:27:30.991Z,16.50
2019-01-26T18:29:58.979Z,20.50
2019-01-26T18:32:26.903Z,18.40
2019-01-26T18:34:55.464Z,16.53
2019-01-26T18:37:23.536Z,18.33
2019-01-26T18:39:51.774Z,18.50
2019-01-26T18:42:20.409Z,15.10
2019-01-26T18:44:48.152Z,16.77
2019-01-26T18:47:16.449Z,18.43
2019-01-26T18:49:46.747Z,21.90
2019-01-26T18:52:15.133Z,14.80
2019-01-26T18:54:43.337Z,15.13
2019-01-26T18:57:13.506Z,13.87
2019-01-26T18:59:42.224Z,14.00
2019-01-26T19:02:10.168Z,22.13
2019-01-26T19:04:42.458Z,15.27
2019-01-26T19:07:11.537Z,17.33
2019-01-26T19:09:40.155Z,12.93
2019-01-26T19:12:07.965Z,13.30
2019-01-26T19:14:36.579Z,18.13
2019-01-26T19:17:04.921Z,11.60
2019-01-26T19:19:33.331Z,14.27
2019-01-26T19:22:03.048Z,26.43
2019-01-26T19:24:30.735Z,17.50
2019-01-26T19:27:00.998Z,18.57
2019-01-26T19:29:29.804Z,18.87
2019-01-26T19:31:59.942Z,25.83
2019-01-26T19:34:28.048Z,18.57
2019-01-26T19:36:56.356Z,18.53
2019-01-26T19:39:25.392Z,16.90
2019-01-26T19:41:53.671Z,29.83
2019-01-26T19:44:21.422Z,19.00
2019-01-26T19:46:49.823Z,20.80
2019-01-26T19:49:24.451Z,15.67
2019-01-26T19:51:54.651Z,21.13
2019-01-26T19:54:22.976Z,13.50
2019-01-26T19:56:51.188Z,18.70
2019-01-26T19:59:21.289Z,13.57
2019-01-26T20:01:51.496Z,21.60
2019-01-26T20:04:20.568Z,10.77
2019-01-26T20:06:49.740Z,12.93
2019-01-26T20:09:18.462Z,13.13
2019-01-26T20:11:46.848Z,16.13
2019-01-26T20:14:14.890Z,12.40
2019-01-26T20:16:42.999Z,16.40
2019-01-26T20:19:10.664Z,15.70
2019-01-26T20:21:40.138Z,16.10
2019-01-26T20:24:10.109Z,13.10
2019-01-26T20:26:37.890Z,13.23
2019-01-26T20:29:06.700Z,13.27
2019-01-26T20:31:34.723Z,14.00
2019-01-26T20:34:02.878Z,13.90
2019-01-26T20:36:30.930Z,18.43
2019-01-26T20:38:58.718Z,17.77
2019-01-26T20:41:27.592Z,15.30
2019-01-26T20:43:56.063Z,15.20
2019-01-26T20:46:24.053Z,16.27
2019-01-26T20:48:52.231Z,17.17
2019-01-26T20:51:24.875Z,19.57
2019-01-26T20:53:50.487Z,15.27
2019-01-26T20:56:18.285Z,18.13
2019-01-26T20:58:46.540Z,15.63
2019-01-26T21:01:14.296Z,15.13
2019-01-26T21:03:42.278Z,14.80
2019-01-26T21:06:09.938Z,14.20
2019-01-26T21:08:37.338Z,15.60
2019-01-26T21:11:05.731Z,11.80
2019-01-26T21:13:34.092Z,13.97
2019-01-26T21:16:04.829Z,16.20
2019-01-26T21:18:36.024Z,11.83
2019-01-26T21:21:04.300Z,12.50
2019-01-26T21:23:32.791Z,12.50
2019-01-26T21:26:01.253Z,16.70
2019-01-26T21:28:29.901Z,11.70
2019-01-26T21:30:57.899Z,11.10
2019-01-26T21:33:26.252Z,8.83
2019-01-26T21:35:56.121Z,10.32
2019-01-26T21:38:23.698Z,11.22
2019-01-26T21:40:51.748Z,12.57
2019-01-26T21:43:20.001Z,14.27
2019-01-26T21:45:47.709Z,9.63
2019-01-26T21:48:15.463Z,10.27
2019-01-26T21:50:43.836Z,9.50
2019-01-26T21:53:12.299Z,13.27
2019-01-26T21:55:41.368Z,9.07
2019-01-26T21:58:09.579Z,11.27
2019-01-26T22:00:37.975Z,12.87
2019-01-26T22:03:06.126Z,15.23
2019-01-26T22:05:35.452Z,10.90
2019-01-26T22:08:05.783Z,12.33
2019-01-26T22:10:33.874Z,9.87
2019-01-26T22:13:04.102Z,10.40
2019-01-26T22:15:38.034Z,10.30
2019-01-26T22:18:06.114Z,7.60
2019-01-26T22:20:35.012Z,9.80
2019-01-26T22:23:03.611Z,12.23
2019-01-26T22:25:32.221Z,9.40
2019-01-26T22:28:02.731Z,11.13
2019-01-26T22:30:31.637Z,14.77
2019-01-26T22:33:00.219Z,12.10
2019-01-26T22:35:29.381Z,10.13
2019-01-26T22:37:58.070Z,6.73
2019-01-26T22:40:29.585Z,9.63
2019-01-26T22:42:57.368Z,12.30
2019-01-26T22:45:27.465Z,9.23
2019-01-26T22:47:56.964Z,10.30
2019-01-26T22:50:27.672Z,10.57
2019-01-26T22:52:56.048Z,12.03
2019-01-26T22:55:24.153Z,9.07
2019-01-26T22:57:52.118Z,7.90
2019-01-26T23:00:47.604Z,8.90
2019-01-26T23:03:16.187Z,9.40
2019-01-26T23:06:19.527Z,11.67
2019-01-26T23:08:47.821Z,11.80
2019-01-26T23:11:38.186Z,12.07
2019-01-26T23:14:33.276Z,9.47
2019-01-26T23:17:18.154Z,9.67
2019-01-26T23:20:24.009Z,11.70
2019-01-26T23:23:21.158Z,10.20
2019-01-26T23:26:33.744Z,14.70
2019-01-26T23:29:47.207Z,13.43
2019-01-26T23:32:15.519Z,13.00
2019-01-26T23:34:43.888Z,14.43
2019-01-26T23:37:25.773Z,8.67
2019-01-26T23:39:54.439Z,9.13
2019-01-26T23:42:24.108Z,11.60
2019-01-26T23:44:54.174Z,8.17
2019-01-26T23:47:23.851Z,10.60
2019-01-26T23:49:52.049Z,8.40
2019-01-26T23:52:21.075Z,7.77
2019-01-26T23:54:54.243Z,11.00
2019-01-26T23:57:24.274Z,7.53
2019-01-26T23:59:53.677Z,12.93
